sensor_id;sensor_type;location;lat;lon;timestamp;temperature;humidity
7998;DHT22;4044;49.814;7.828;2023-06-26T00:00:26;16.80;92.00
7998;DHT22;4044;49.814;7.828;2023-06-26T00:02:51;16.80;91.60
7998;DHT22;4044;49.814;7.828;2023-06-26T00:05:17;16.80;92.20
7998;DHT22;4044;49.814;7.828;2023-06-26T00:07:43;16.80;91.60
7998;DHT22;4044;49.814;7.828;2023-06-26T00:10:08;16.70;92.50
7998;DHT22;4044;49.814;7.828;2023-06-26T00:12:34;16.70;93.20
7998;DHT22;4044;49.814;7.828;2023-06-26T00:15:00;16.60;92.70
7998;DHT22;4044;49.814;7.828;2023-06-26T00:17:25;16.50;93.10
7998;DHT22;4044;49.814;7.828;2023-06-26T00:19:51;16.50;92.90
7998;DHT22;4044;49.814;7.828;2023-06-26T00:22:17;16.50;93.40
7998;DHT22;4044;49.814;7.828;2023-06-26T00:24:42;16.50;93.00
7998;DHT22;4044;49.814;7.828;2023-06-26T00:27:10;16.50;93.20
7998;DHT22;4044;49.814;7.828;2023-06-26T00:29:35;16.50;93.90
7998;DHT22;4044;49.814;7.828;2023-06-26T00:32:01;16.40;94.30
7998;DHT22;4044;49.814;7.828;2023-06-26T00:34:26;16.40;93.70
7998;DHT22;4044;49.814;7.828;2023-06-26T00:36:52;16.40;93.80
7998;DHT22;4044;49.814;7.828;2023-06-26T00:39:18;16.40;94.60
7998;DHT22;4044;49.814;7.828;2023-06-26T00:41:43;16.30;94.20
7998;DHT22;4044;49.814;7.828;2023-06-26T00:44:09;16.30;94.20
7998;DHT22;4044;49.814;7.828;2023-06-26T00:46:34;16.20;95.10
7998;DHT22;4044;49.814;7.828;2023-06-26T00:49:02;16.10;95.00
7998;DHT22;4044;49.814;7.828;2023-06-26T00:51:29;16.10;95.70
7998;DHT22;4044;49.814;7.828;2023-06-26T00:53:56;16.00;96.00
7998;DHT22;4044;49.814;7.828;2023-06-26T00:56:22;16.00;96.40
7998;DHT22;4044;49.814;7.828;2023-06-26T00:58:48;15.90;97.10
7998;DHT22;4044;49.814;7.828;2023-06-26T01:01:14;15.90;97.10
7998;DHT22;4044;49.814;7.828;2023-06-26T01:03:43;15.80;97.80
7998;DHT22;4044;49.814;7.828;2023-06-26T01:06:11;15.80;98.60
7998;DHT22;4044;49.814;7.828;2023-06-26T01:08:39;15.80;99.60
7998;DHT22;4044;49.814;7.828;2023-06-26T01:11:05;15.80;99.70
7998;DHT22;4044;49.814;7.828;2023-06-26T01:13:31;15.80;98.80
7998;DHT22;4044;49.814;7.828;2023-06-26T01:15:58;15.70;99.80
7998;DHT22;4044;49.814;7.828;2023-06-26T01:18:25;15.70;99.00
7998;DHT22;4044;49.814;7.828;2023-06-26T01:20:51;15.70;99.30
7998;DHT22;4044;49.814;7.828;2023-06-26T01:23:30;15.60;99.90
7998;DHT22;4044;49.814;7.828;2023-06-26T01:26:14;15.50;99.90
7998;DHT22;4044;49.814;7.828;2023-06-26T01:28:43;15.40;99.90
7998;DHT22;4044;49.814;7.828;2023-06-26T01:31:11;15.40;99.90
7998;DHT22;4044;49.814;7.828;2023-06-26T01:33:37;15.40;99.90
7998;DHT22;4044;49.814;7.828;2023-06-26T01:36:03;15.40;99.90
7998;DHT22;4044;49.814;7.828;2023-06-26T01:38:29;15.40;99.90
7998;DHT22;4044;49.814;7.828;2023-06-26T01:40:55;15.40;99.90
7998;DHT22;4044;49.814;7.828;2023-06-26T01:46:29;15.10;99.90
7998;DHT22;4044;49.814;7.828;2023-06-26T01:49:11;15.10;99.90
7998;DHT22;4044;49.814;7.828;2023-06-26T01:54:30;15.20;99.90
7998;DHT22;4044;49.814;7.828;2023-06-26T01:56:59;15.20;99.90
7998;DHT22;4044;49.814;7.828;2023-06-26T01:59:25;15.10;99.90
7998;DHT22;4044;49.814;7.828;2023-06-26T02:01:54;15.00;99.90
7998;DHT22;4044;49.814;7.828;2023-06-26T02:04:19;14.90;99.90
7998;DHT22;4044;49.814;7.828;2023-06-26T02:06:45;14.80;99.90
7998;DHT22;4044;49.814;7.828;2023-06-26T02:09:10;14.90;99.90
7998;DHT22;4044;49.814;7.828;2023-06-26T02:11:36;14.90;99.90
7998;DHT22;4044;49.814;7.828;2023-06-26T02:14:01;14.90;99.90
7998;DHT22;4044;49.814;7.828;2023-06-26T02:16:28;14.90;99.90
7998;DHT22;4044;49.814;7.828;2023-06-26T02:18:53;14.90;99.90
7998;DHT22;4044;49.814;7.828;2023-06-26T02:21:19;14.90;99.90
7998;DHT22;4044;49.814;7.828;2023-06-26T02:23:44;14.90;99.90
7998;DHT22;4044;49.814;7.828;2023-06-26T02:26:10;14.80;99.90
7998;DHT22;4044;49.814;7.828;2023-06-26T02:28:36;14.80;99.90
7998;DHT22;4044;49.814;7.828;2023-06-26T02:31:01;14.80;99.90
7998;DHT22;4044;49.814;7.828;2023-06-26T02:33:27;14.80;99.90
7998;DHT22;4044;49.814;7.828;2023-06-26T02:35:52;14.80;99.90
7998;DHT22;4044;49.814;7.828;2023-06-26T02:38:18;14.70;99.90
7998;DHT22;4044;49.814;7.828;2023-06-26T02:40:44;14.70;99.90
7998;DHT22;4044;49.814;7.828;2023-06-26T02:43:09;14.60;99.90
7998;DHT22;4044;49.814;7.828;2023-06-26T02:45:35;14.60;99.90
7998;DHT22;4044;49.814;7.828;2023-06-26T02:48:00;14.60;99.90
7998;DHT22;4044;49.814;7.828;2023-06-26T02:50:26;14.60;99.90
7998;DHT22;4044;49.814;7.828;2023-06-26T02:52:51;14.60;99.90
7998;DHT22;4044;49.814;7.828;2023-06-26T02:55:18;14.60;99.90
7998;DHT22;4044;49.814;7.828;2023-06-26T02:57:44;14.60;99.90
7998;DHT22;4044;49.814;7.828;2023-06-26T03:00:10;14.60;99.90
7998;DHT22;4044;49.814;7.828;2023-06-26T03:02:36;14.60;99.90
7998;DHT22;4044;49.814;7.828;2023-06-26T03:05:02;14.60;99.90
7998;DHT22;4044;49.814;7.828;2023-06-26T03:07:28;14.60;99.90
7998;DHT22;4044;49.814;7.828;2023-06-26T03:09:53;14.50;99.90
7998;DHT22;4044;49.814;7.828;2023-06-26T03:12:19;14.50;99.90
7998;DHT22;4044;49.814;7.828;2023-06-26T03:14:44;14.50;99.90
7998;DHT22;4044;49.814;7.828;2023-06-26T03:17:10;14.50;99.90
7998;DHT22;4044;49.814;7.828;2023-06-26T03:19:35;14.40;99.90
7998;DHT22;4044;49.814;7.828;2023-06-26T03:22:01;14.40;99.90
7998;DHT22;4044;49.814;7.828;2023-06-26T03:24:26;14.40;99.90
7998;DHT22;4044;49.814;7.828;2023-06-26T03:26:52;14.40;99.90
7998;DHT22;4044;49.814;7.828;2023-06-26T03:29:17;14.20;99.90
7998;DHT22;4044;49.814;7.828;2023-06-26T03:31:43;14.40;99.90
7998;DHT22;4044;49.814;7.828;2023-06-26T03:34:08;14.40;99.90
7998;DHT22;4044;49.814;7.828;2023-06-26T03:36:34;14.40;99.90
7998;DHT22;4044;49.814;7.828;2023-06-26T03:39:00;14.40;99.90
7998;DHT22;4044;49.814;7.828;2023-06-26T03:41:26;14.40;99.90
7998;DHT22;4044;49.814;7.828;2023-06-26T03:43:52;14.40;99.90
7998;DHT22;4044;49.814;7.828;2023-06-26T03:46:17;14.40;99.90
7998;DHT22;4044;49.814;7.828;2023-06-26T03:48:43;14.40;99.90
7998;DHT22;4044;49.814;7.828;2023-06-26T03:51:08;14.40;99.90
7998;DHT22;4044;49.814;7.828;2023-06-26T03:53:34;14.40;99.90
7998;DHT22;4044;49.814;7.828;2023-06-26T03:56:00;14.50;99.90
7998;DHT22;4044;49.814;7.828;2023-06-26T03:58:25;14.50;99.90
7998;DHT22;4044;49.814;7.828;2023-06-26T04:00:51;14.50;99.90
7998;DHT22;4044;49.814;7.828;2023-06-26T04:03:17;14.40;99.90
7998;DHT22;4044;49.814;7.828;2023-06-26T04:05:42;14.40;99.90
7998;DHT22;4044;49.814;7.828;2023-06-26T04:08:08;14.40;99.90
7998;DHT22;4044;49.814;7.828;2023-06-26T04:10:34;14.50;99.90
7998;DHT22;4044;49.814;7.828;2023-06-26T04:13:01;14.50;99.90
7998;DHT22;4044;49.814;7.828;2023-06-26T04:15:27;14.60;99.90
7998;DHT22;4044;49.814;7.828;2023-06-26T04:17:52;14.60;99.90
7998;DHT22;4044;49.814;7.828;2023-06-26T04:20:18;14.60;99.90
7998;DHT22;4044;49.814;7.828;2023-06-26T04:22:43;14.60;99.90
7998;DHT22;4044;49.814;7.828;2023-06-26T04:25:10;14.70;99.90
7998;DHT22;4044;49.814;7.828;2023-06-26T04:27:37;14.70;99.90
7998;DHT22;4044;49.814;7.828;2023-06-26T04:30:03;14.70;99.90
7998;DHT22;4044;49.814;7.828;2023-06-26T04:32:29;14.70;99.90
7998;DHT22;4044;49.814;7.828;2023-06-26T04:34:54;14.70;99.90
7998;DHT22;4044;49.814;7.828;2023-06-26T04:37:20;14.80;99.90
7998;DHT22;4044;49.814;7.828;2023-06-26T04:39:45;14.80;99.90
7998;DHT22;4044;49.814;7.828;2023-06-26T04:42:11;14.90;99.90
7998;DHT22;4044;49.814;7.828;2023-06-26T04:44:37;14.80;99.90
7998;DHT22;4044;49.814;7.828;2023-06-26T04:47:03;14.80;99.90
7998;DHT22;4044;49.814;7.828;2023-06-26T04:49:29;14.90;99.90
7998;DHT22;4044;49.814;7.828;2023-06-26T04:51:56;15.00;99.90
7998;DHT22;4044;49.814;7.828;2023-06-26T04:54:21;15.00;99.90
7998;DHT22;4044;49.814;7.828;2023-06-26T04:56:47;15.20;99.90
7998;DHT22;4044;49.814;7.828;2023-06-26T04:59:13;15.30;99.90
7998;DHT22;4044;49.814;7.828;2023-06-26T05:01:40;15.40;99.90
7998;DHT22;4044;49.814;7.828;2023-06-26T05:04:06;15.50;99.90
7998;DHT22;4044;49.814;7.828;2023-06-26T05:06:31;15.60;99.90
7998;DHT22;4044;49.814;7.828;2023-06-26T05:08:57;15.80;99.90
7998;DHT22;4044;49.814;7.828;2023-06-26T05:11:22;15.90;99.90
7998;DHT22;4044;49.814;7.828;2023-06-26T05:13:49;16.10;99.90
7998;DHT22;4044;49.814;7.828;2023-06-26T05:16:14;16.20;99.90
7998;DHT22;4044;49.814;7.828;2023-06-26T05:18:40;16.40;99.90
7998;DHT22;4044;49.814;7.828;2023-06-26T05:21:06;16.50;99.90
7998;DHT22;4044;49.814;7.828;2023-06-26T05:23:32;16.70;99.90
7998;DHT22;4044;49.814;7.828;2023-06-26T05:26:02;16.80;99.90
7998;DHT22;4044;49.814;7.828;2023-06-26T05:28:29;17.10;99.90
7998;DHT22;4044;49.814;7.828;2023-06-26T05:30:56;17.20;99.90
7998;DHT22;4044;49.814;7.828;2023-06-26T05:33:24;17.40;99.90
7998;DHT22;4044;49.814;7.828;2023-06-26T05:35:52;17.50;99.90
7998;DHT22;4044;49.814;7.828;2023-06-26T05:38:18;17.70;99.90
7998;DHT22;4044;49.814;7.828;2023-06-26T05:40:44;18.00;99.90
7998;DHT22;4044;49.814;7.828;2023-06-26T05:43:10;18.20;99.90
7998;DHT22;4044;49.814;7.828;2023-06-26T05:45:36;18.50;99.90
7998;DHT22;4044;49.814;7.828;2023-06-26T05:48:01;18.60;99.90
7998;DHT22;4044;49.814;7.828;2023-06-26T05:50:28;18.70;99.90
7998;DHT22;4044;49.814;7.828;2023-06-26T05:52:54;18.80;99.90
7998;DHT22;4044;49.814;7.828;2023-06-26T05:55:20;19.10;99.90
7998;DHT22;4044;49.814;7.828;2023-06-26T05:57:46;19.20;99.90
7998;DHT22;4044;49.814;7.828;2023-06-26T06:00:13;19.40;99.90
7998;DHT22;4044;49.814;7.828;2023-06-26T06:02:39;19.40;99.90
7998;DHT22;4044;49.814;7.828;2023-06-26T06:05:05;19.50;99.90
7998;DHT22;4044;49.814;7.828;2023-06-26T06:07:35;19.50;99.90
7998;DHT22;4044;49.814;7.828;2023-06-26T06:10:02;19.60;99.90
7998;DHT22;4044;49.814;7.828;2023-06-26T06:12:28;19.70;99.90
7998;DHT22;4044;49.814;7.828;2023-06-26T06:14:55;19.80;99.90
7998;DHT22;4044;49.814;7.828;2023-06-26T06:17:21;19.90;99.90
7998;DHT22;4044;49.814;7.828;2023-06-26T06:19:46;20.00;99.90
7998;DHT22;4044;49.814;7.828;2023-06-26T06:22:12;20.10;99.90
7998;DHT22;4044;49.814;7.828;2023-06-26T06:24:37;20.30;99.90
7998;DHT22;4044;49.814;7.828;2023-06-26T06:27:03;20.40;99.90
7998;DHT22;4044;49.814;7.828;2023-06-26T06:29:29;20.50;99.90
7998;DHT22;4044;49.814;7.828;2023-06-26T06:31:54;20.60;99.90
7998;DHT22;4044;49.814;7.828;2023-06-26T06:34:20;20.70;99.90
7998;DHT22;4044;49.814;7.828;2023-06-26T06:36:45;20.90;99.90
7998;DHT22;4044;49.814;7.828;2023-06-26T06:39:11;21.00;99.90
7998;DHT22;4044;49.814;7.828;2023-06-26T06:41:37;21.20;99.90
7998;DHT22;4044;49.814;7.828;2023-06-26T06:44:03;21.40;99.90
7998;DHT22;4044;49.814;7.828;2023-06-26T06:46:29;21.60;99.80
7998;DHT22;4044;49.814;7.828;2023-06-26T06:48:55;21.90;99.10
7998;DHT22;4044;49.814;7.828;2023-06-26T06:51:21;22.30;98.10
7998;DHT22;4044;49.814;7.828;2023-06-26T06:53:47;22.70;97.10
7998;DHT22;4044;49.814;7.828;2023-06-26T06:56:12;23.10;96.60
7998;DHT22;4044;49.814;7.828;2023-06-26T06:58:38;23.60;96.30
7998;DHT22;4044;49.814;7.828;2023-06-26T07:01:06;23.90;95.60
7998;DHT22;4044;49.814;7.828;2023-06-26T07:03:31;24.10;94.70
7998;DHT22;4044;49.814;7.828;2023-06-26T07:05:57;24.40;94.00
7998;DHT22;4044;49.814;7.828;2023-06-26T07:08:22;24.70;95.00
7998;DHT22;4044;49.814;7.828;2023-06-26T07:10:48;24.80;92.00
7998;DHT22;4044;49.814;7.828;2023-06-26T07:13:13;24.90;93.40
7998;DHT22;4044;49.814;7.828;2023-06-26T07:15:39;25.10;91.90
7998;DHT22;4044;49.814;7.828;2023-06-26T07:18:04;25.30;91.40
7998;DHT22;4044;49.814;7.828;2023-06-26T07:20:30;25.20;90.10
7998;DHT22;4044;49.814;7.828;2023-06-26T07:22:55;25.20;90.70
7998;DHT22;4044;49.814;7.828;2023-06-26T07:25:21;25.30;90.20
7998;DHT22;4044;49.814;7.828;2023-06-26T07:27:46;25.40;87.70
7998;DHT22;4044;49.814;7.828;2023-06-26T07:30:12;25.40;88.70
7998;DHT22;4044;49.814;7.828;2023-06-26T07:32:38;25.30;85.60
7998;DHT22;4044;49.814;7.828;2023-06-26T07:35:05;25.10;87.30
7998;DHT22;4044;49.814;7.828;2023-06-26T07:37:30;25.10;86.70
7998;DHT22;4044;49.814;7.828;2023-06-26T07:39:57;25.10;86.10
7998;DHT22;4044;49.814;7.828;2023-06-26T07:42:23;25.20;87.10
7998;DHT22;4044;49.814;7.828;2023-06-26T07:44:48;25.30;87.40
7998;DHT22;4044;49.814;7.828;2023-06-26T07:47:15;25.30;88.20
7998;DHT22;4044;49.814;7.828;2023-06-26T07:49:40;25.30;86.60
7998;DHT22;4044;49.814;7.828;2023-06-26T07:52:06;25.30;87.80
7998;DHT22;4044;49.814;7.828;2023-06-26T07:54:32;25.20;85.80
7998;DHT22;4044;49.814;7.828;2023-06-26T07:56:59;25.30;87.30
7998;DHT22;4044;49.814;7.828;2023-06-26T07:59:43;25.40;87.60
7998;DHT22;4044;49.814;7.828;2023-06-26T08:02:09;25.70;86.10
7998;DHT22;4044;49.814;7.828;2023-06-26T08:04:34;26.00;85.80
7998;DHT22;4044;49.814;7.828;2023-06-26T08:07:00;26.30;84.30
7998;DHT22;4044;49.814;7.828;2023-06-26T08:09:28;26.40;84.10
7998;DHT22;4044;49.814;7.828;2023-06-26T08:11:54;26.60;83.70
7998;DHT22;4044;49.814;7.828;2023-06-26T08:14:19;26.80;84.90
7998;DHT22;4044;49.814;7.828;2023-06-26T08:16:46;26.80;82.30
7998;DHT22;4044;49.814;7.828;2023-06-26T08:19:15;26.70;81.20
7998;DHT22;4044;49.814;7.828;2023-06-26T08:21:42;26.50;81.00
7998;DHT22;4044;49.814;7.828;2023-06-26T08:24:09;26.20;81.00
7998;DHT22;4044;49.814;7.828;2023-06-26T08:26:35;26.10;81.30
7998;DHT22;4044;49.814;7.828;2023-06-26T08:29:00;26.20;81.60
7998;DHT22;4044;49.814;7.828;2023-06-26T08:31:26;26.40;81.10
7998;DHT22;4044;49.814;7.828;2023-06-26T08:33:52;26.60;81.00
7998;DHT22;4044;49.814;7.828;2023-06-26T08:36:17;26.70;79.90
7998;DHT22;4044;49.814;7.828;2023-06-26T08:38:43;26.80;80.30
7998;DHT22;4044;49.814;7.828;2023-06-26T08:41:08;27.00;80.10
7998;DHT22;4044;49.814;7.828;2023-06-26T08:43:35;27.10;80.30
7998;DHT22;4044;49.814;7.828;2023-06-26T08:46:01;27.20;79.70
7998;DHT22;4044;49.814;7.828;2023-06-26T08:48:30;27.50;78.70
7998;DHT22;4044;49.814;7.828;2023-06-26T08:50:57;27.70;78.50
7998;DHT22;4044;49.814;7.828;2023-06-26T08:53:33;28.00;78.00
7998;DHT22;4044;49.814;7.828;2023-06-26T08:56:00;28.40;76.30
7998;DHT22;4044;49.814;7.828;2023-06-26T08:58:26;28.70;76.10
7998;DHT22;4044;49.814;7.828;2023-06-26T09:00:52;28.90;75.30
7998;DHT22;4044;49.814;7.828;2023-06-26T09:03:18;28.80;71.90
7998;DHT22;4044;49.814;7.828;2023-06-26T09:05:44;28.50;74.70
7998;DHT22;4044;49.814;7.828;2023-06-26T09:08:09;28.60;74.00
7998;DHT22;4044;49.814;7.828;2023-06-26T09:10:35;28.80;73.30
7998;DHT22;4044;49.814;7.828;2023-06-26T09:13:00;28.40;73.10
7998;DHT22;4044;49.814;7.828;2023-06-26T09:15:27;28.40;74.30
7998;DHT22;4044;49.814;7.828;2023-06-26T09:17:57;28.40;72.10
7998;DHT22;4044;49.814;7.828;2023-06-26T09:20:27;28.50;73.00
7998;DHT22;4044;49.814;7.828;2023-06-26T09:22:53;28.50;72.30
7998;DHT22;4044;49.814;7.828;2023-06-26T09:25:21;28.60;73.80
7998;DHT22;4044;49.814;7.828;2023-06-26T09:27:48;28.60;73.60
7998;DHT22;4044;49.814;7.828;2023-06-26T09:30:16;28.50;72.10
7998;DHT22;4044;49.814;7.828;2023-06-26T09:32:42;28.60;72.10
7998;DHT22;4044;49.814;7.828;2023-06-26T09:35:08;28.70;72.90
7998;DHT22;4044;49.814;7.828;2023-06-26T09:37:34;28.50;72.10
7998;DHT22;4044;49.814;7.828;2023-06-26T09:40:00;28.60;72.20
7998;DHT22;4044;49.814;7.828;2023-06-26T09:42:25;28.60;71.70
7998;DHT22;4044;49.814;7.828;2023-06-26T09:44:51;28.40;71.70
7998;DHT22;4044;49.814;7.828;2023-06-26T09:47:18;28.40;72.30
7998;DHT22;4044;49.814;7.828;2023-06-26T09:49:44;28.30;73.10
7998;DHT22;4044;49.814;7.828;2023-06-26T09:52:13;28.40;72.00
7998;DHT22;4044;49.814;7.828;2023-06-26T09:54:40;28.30;71.20
7998;DHT22;4044;49.814;7.828;2023-06-26T09:57:09;28.20;70.70
7998;DHT22;4044;49.814;7.828;2023-06-26T09:59:36;28.40;72.50
7998;DHT22;4044;49.814;7.828;2023-06-26T10:02:01;28.50;71.20
7998;DHT22;4044;49.814;7.828;2023-06-26T10:04:27;28.40;70.50
7998;DHT22;4044;49.814;7.828;2023-06-26T10:06:56;28.40;70.10
7998;DHT22;4044;49.814;7.828;2023-06-26T10:09:22;28.40;69.90
7998;DHT22;4044;49.814;7.828;2023-06-26T10:12:02;28.40;70.50
7998;DHT22;4044;49.814;7.828;2023-06-26T10:14:34;28.60;70.60
7998;DHT22;4044;49.814;7.828;2023-06-26T10:17:02;28.70;69.90
7998;DHT22;4044;49.814;7.828;2023-06-26T10:19:29;28.80;69.70
7998;DHT22;4044;49.814;7.828;2023-06-26T10:21:57;28.80;67.60
7998;DHT22;4044;49.814;7.828;2023-06-26T10:24:23;28.90;67.40
7998;DHT22;4044;49.814;7.828;2023-06-26T10:27:00;29.00;66.80
7998;DHT22;4044;49.814;7.828;2023-06-26T10:29:27;28.90;67.10
7998;DHT22;4044;49.814;7.828;2023-06-26T10:31:56;29.10;65.70
7998;DHT22;4044;49.814;7.828;2023-06-26T10:34:23;29.20;66.30
7998;DHT22;4044;49.814;7.828;2023-06-26T10:36:59;29.30;65.50
7998;DHT22;4044;49.814;7.828;2023-06-26T10:39:25;29.50;65.20
7998;DHT22;4044;49.814;7.828;2023-06-26T10:41:54;29.60;65.40
7998;DHT22;4044;49.814;7.828;2023-06-26T10:44:20;29.90;64.80
7998;DHT22;4044;49.814;7.828;2023-06-26T10:46:53;30.00;63.70
7998;DHT22;4044;49.814;7.828;2023-06-26T10:49:20;29.90;62.50
7998;DHT22;4044;49.814;7.828;2023-06-26T10:51:50;29.80;63.50
7998;DHT22;4044;49.814;7.828;2023-06-26T10:54:17;29.70;62.60
7998;DHT22;4044;49.814;7.828;2023-06-26T10:56:45;29.90;63.10
7998;DHT22;4044;49.814;7.828;2023-06-26T10:59:14;29.90;61.40
7998;DHT22;4044;49.814;7.828;2023-06-26T11:01:41;30.10;61.10
7998;DHT22;4044;49.814;7.828;2023-06-26T11:04:08;30.30;61.00
7998;DHT22;4044;49.814;7.828;2023-06-26T11:06:37;30.40;61.80
7998;DHT22;4044;49.814;7.828;2023-06-26T11:09:11;30.50;60.40
7998;DHT22;4044;49.814;7.828;2023-06-26T11:14:19;30.70;59.90
7998;DHT22;4044;49.814;7.828;2023-06-26T11:16:44;30.70;58.50
7998;DHT22;4044;49.814;7.828;2023-06-26T11:19:10;30.50;58.30
7998;DHT22;4044;49.814;7.828;2023-06-26T11:21:40;30.50;57.60
7998;DHT22;4044;49.814;7.828;2023-06-26T11:24:10;30.40;58.80
7998;DHT22;4044;49.814;7.828;2023-06-26T11:26:43;30.40;59.30
7998;DHT22;4044;49.814;7.828;2023-06-26T11:29:10;30.60;57.90
7998;DHT22;4044;49.814;7.828;2023-06-26T11:31:37;30.80;57.60
7998;DHT22;4044;49.814;7.828;2023-06-26T11:34:05;30.70;56.30
7998;DHT22;4044;49.814;7.828;2023-06-26T11:36:31;30.90;56.40
7998;DHT22;4044;49.814;7.828;2023-06-26T11:38:58;31.20;56.20
7998;DHT22;4044;49.814;7.828;2023-06-26T11:41:26;31.40;56.50
7998;DHT22;4044;49.814;7.828;2023-06-26T11:43:52;31.30;56.30
7998;DHT22;4044;49.814;7.828;2023-06-26T11:46:19;31.60;54.80
7998;DHT22;4044;49.814;7.828;2023-06-26T11:48:45;31.60;51.30
7998;DHT22;4044;49.814;7.828;2023-06-26T11:51:17;31.50;51.50
7998;DHT22;4044;49.814;7.828;2023-06-26T11:53:44;31.50;51.00
7998;DHT22;4044;49.814;7.828;2023-06-26T11:56:11;31.40;51.90
7998;DHT22;4044;49.814;7.828;2023-06-26T11:58:56;32.00;53.60
7998;DHT22;4044;49.814;7.828;2023-06-26T12:01:21;33.10;51.00
7998;DHT22;4044;49.814;7.828;2023-06-26T12:03:48;33.50;49.70
7998;DHT22;4044;49.814;7.828;2023-06-26T12:06:15;33.90;50.60
7998;DHT22;4044;49.814;7.828;2023-06-26T12:08:41;34.20;51.10
7998;DHT22;4044;49.814;7.828;2023-06-26T12:11:07;35.30;50.80
7998;DHT22;4044;49.814;7.828;2023-06-26T12:13:33;35.60;49.50
7998;DHT22;4044;49.814;7.828;2023-06-26T12:15:59;36.00;48.90
7998;DHT22;4044;49.814;7.828;2023-06-26T12:18:24;35.10;49.60
7998;DHT22;4044;49.814;7.828;2023-06-26T12:20:52;35.60;51.00
7998;DHT22;4044;49.814;7.828;2023-06-26T12:23:18;35.30;49.40
7998;DHT22;4044;49.814;7.828;2023-06-26T12:25:43;35.20;50.20
7998;DHT22;4044;49.814;7.828;2023-06-26T12:28:17;35.70;50.20
7998;DHT22;4044;49.814;7.828;2023-06-26T12:30:46;36.40;48.20
7998;DHT22;4044;49.814;7.828;2023-06-26T12:33:15;37.00;46.30
7998;DHT22;4044;49.814;7.828;2023-06-26T12:35:41;37.20;46.30
7998;DHT22;4044;49.814;7.828;2023-06-26T12:38:08;36.20;45.60
7998;DHT22;4044;49.814;7.828;2023-06-26T12:40:45;35.20;47.20
7998;DHT22;4044;49.814;7.828;2023-06-26T12:43:11;34.80;47.10
7998;DHT22;4044;49.814;7.828;2023-06-26T12:45:47;35.60;46.10
7998;DHT22;4044;49.814;7.828;2023-06-26T12:48:12;36.50;46.70
7998;DHT22;4044;49.814;7.828;2023-06-26T12:50:43;36.30;45.40
7998;DHT22;4044;49.814;7.828;2023-06-26T12:53:10;36.90;45.80
7998;DHT22;4044;49.814;7.828;2023-06-26T12:55:36;36.90;44.10
7998;DHT22;4044;49.814;7.828;2023-06-26T12:58:02;37.20;43.50
7998;DHT22;4044;49.814;7.828;2023-06-26T13:00:27;37.50;44.40
7998;DHT22;4044;49.814;7.828;2023-06-26T13:02:53;37.40;43.60
7998;DHT22;4044;49.814;7.828;2023-06-26T13:05:18;36.80;44.00
7998;DHT22;4044;49.814;7.828;2023-06-26T13:07:44;36.60;45.20
7998;DHT22;4044;49.814;7.828;2023-06-26T13:10:10;36.60;45.30
7998;DHT22;4044;49.814;7.828;2023-06-26T13:12:35;36.80;44.10
7998;DHT22;4044;49.814;7.828;2023-06-26T13:15:01;37.00;43.90
7998;DHT22;4044;49.814;7.828;2023-06-26T13:17:26;36.80;42.90
7998;DHT22;4044;49.814;7.828;2023-06-26T13:19:52;36.50;43.30
7998;DHT22;4044;49.814;7.828;2023-06-26T13:22:17;36.30;42.10
7998;DHT22;4044;49.814;7.828;2023-06-26T13:24:43;36.30;41.60
7998;DHT22;4044;49.814;7.828;2023-06-26T13:27:08;36.30;41.40
7998;DHT22;4044;49.814;7.828;2023-06-26T13:29:34;35.90;41.60
7998;DHT22;4044;49.814;7.828;2023-06-26T13:31:59;35.00;41.20
7998;DHT22;4044;49.814;7.828;2023-06-26T13:34:27;35.00;41.20
7998;DHT22;4044;49.814;7.828;2023-06-26T13:36:53;35.10;40.80
7998;DHT22;4044;49.814;7.828;2023-06-26T13:39:19;35.00;41.70
7998;DHT22;4044;49.814;7.828;2023-06-26T13:41:45;35.20;41.70
7998;DHT22;4044;49.814;7.828;2023-06-26T13:44:11;35.50;41.00
7998;DHT22;4044;49.814;7.828;2023-06-26T13:46:37;35.60;38.60
7998;DHT22;4044;49.814;7.828;2023-06-26T13:49:02;35.30;38.20
7998;DHT22;4044;49.814;7.828;2023-06-26T13:51:28;35.20;38.30
7998;DHT22;4044;49.814;7.828;2023-06-26T13:53:53;35.70;36.60
7998;DHT22;4044;49.814;7.828;2023-06-26T13:56:20;35.90;37.00
7998;DHT22;4044;49.814;7.828;2023-06-26T13:58:45;36.50;38.20
7998;DHT22;4044;49.814;7.828;2023-06-26T14:01:11;36.40;35.20
7998;DHT22;4044;49.814;7.828;2023-06-26T14:03:38;36.50;34.10
7998;DHT22;4044;49.814;7.828;2023-06-26T14:06:03;36.30;34.80
7998;DHT22;4044;49.814;7.828;2023-06-26T14:08:29;36.30;35.50
7998;DHT22;4044;49.814;7.828;2023-06-26T14:10:55;36.10;33.20
7998;DHT22;4044;49.814;7.828;2023-06-26T14:13:20;35.60;33.50
7998;DHT22;4044;49.814;7.828;2023-06-26T14:15:46;35.80;33.70
7998;DHT22;4044;49.814;7.828;2023-06-26T14:18:11;36.10;35.70
7998;DHT22;4044;49.814;7.828;2023-06-26T14:20:37;35.90;34.10
7998;DHT22;4044;49.814;7.828;2023-06-26T14:23:02;35.60;34.90
7998;DHT22;4044;49.814;7.828;2023-06-26T14:25:28;35.20;33.60
7998;DHT22;4044;49.814;7.828;2023-06-26T14:27:57;35.30;34.80
7998;DHT22;4044;49.814;7.828;2023-06-26T14:30:23;35.20;34.20
7998;DHT22;4044;49.814;7.828;2023-06-26T14:32:49;35.30;35.90
7998;DHT22;4044;49.814;7.828;2023-06-26T14:35:15;35.80;35.60
7998;DHT22;4044;49.814;7.828;2023-06-26T14:37:41;36.70;34.70
7998;DHT22;4044;49.814;7.828;2023-06-26T14:40:07;37.80;35.00
7998;DHT22;4044;49.814;7.828;2023-06-26T14:42:33;38.70;35.40
7998;DHT22;4044;49.814;7.828;2023-06-26T14:44:59;38.00;35.00
7998;DHT22;4044;49.814;7.828;2023-06-26T14:47:24;37.40;35.80
7998;DHT22;4044;49.814;7.828;2023-06-26T14:49:50;37.20;36.10
7998;DHT22;4044;49.814;7.828;2023-06-26T14:52:15;37.60;35.70
7998;DHT22;4044;49.814;7.828;2023-06-26T14:54:41;37.60;36.10
7998;DHT22;4044;49.814;7.828;2023-06-26T14:57:07;37.80;35.30
7998;DHT22;4044;49.814;7.828;2023-06-26T14:59:33;38.50;35.20
7998;DHT22;4044;49.814;7.828;2023-06-26T15:01:58;38.60;34.70
7998;DHT22;4044;49.814;7.828;2023-06-26T15:04:24;38.30;35.30
7998;DHT22;4044;49.814;7.828;2023-06-26T15:06:49;38.50;36.10
7998;DHT22;4044;49.814;7.828;2023-06-26T15:09:15;37.80;36.00
7998;DHT22;4044;49.814;7.828;2023-06-26T15:11:40;37.60;36.50
7998;DHT22;4044;49.814;7.828;2023-06-26T15:14:06;37.30;36.40
7998;DHT22;4044;49.814;7.828;2023-06-26T15:16:31;36.50;36.50
7998;DHT22;4044;49.814;7.828;2023-06-26T15:18:57;36.80;36.30
7998;DHT22;4044;49.814;7.828;2023-06-26T15:21:23;37.60;37.10
7998;DHT22;4044;49.814;7.828;2023-06-26T15:23:49;37.70;36.90
7998;DHT22;4044;49.814;7.828;2023-06-26T15:26:15;37.90;36.00
7998;DHT22;4044;49.814;7.828;2023-06-26T15:28:40;38.30;36.40
7998;DHT22;4044;49.814;7.828;2023-06-26T15:31:06;37.80;35.30
7998;DHT22;4044;49.814;7.828;2023-06-26T15:33:31;38.10;35.30
7998;DHT22;4044;49.814;7.828;2023-06-26T15:35:57;38.30;35.50
7998;DHT22;4044;49.814;7.828;2023-06-26T15:38:23;37.90;35.80
7998;DHT22;4044;49.814;7.828;2023-06-26T15:40:48;37.80;36.20
7998;DHT22;4044;49.814;7.828;2023-06-26T15:43:14;38.40;35.50
7998;DHT22;4044;49.814;7.828;2023-06-26T15:45:39;38.30;35.40
7998;DHT22;4044;49.814;7.828;2023-06-26T15:48:06;38.60;35.80
7998;DHT22;4044;49.814;7.828;2023-06-26T15:50:31;39.00;35.50
7998;DHT22;4044;49.814;7.828;2023-06-26T15:52:57;38.70;35.40
7998;DHT22;4044;49.814;7.828;2023-06-26T15:55:22;38.00;35.50
7998;DHT22;4044;49.814;7.828;2023-06-26T15:57:48;38.10;36.10
7998;DHT22;4044;49.814;7.828;2023-06-26T16:00:14;38.70;36.10
7998;DHT22;4044;49.814;7.828;2023-06-26T16:02:40;38.30;35.40
7998;DHT22;4044;49.814;7.828;2023-06-26T16:05:06;38.30;36.40